Startpagina
METAR-TAF:

METAR-TAF

Vliegvelden :

Productieplatform

K14-fa-1c, Nederland

breedte: 53-16-10N, lengte: 3-37-40E, hoogte: 28 m

Actueel weer

Dit bericht is 11 minuten geleden gemaakt, om 12:25 UTC
Wind 23 kt uit het oostnoordoosten
Temperatuur 13°C
Vochtigheid 88%
Druk 1017 hPa
Zicht 10 km of meer

METAR: EHKV 211225Z AUTO 06023KT 9999 NSC 13/11 Q1017 W///H///

Tijdstip: 14:36 (12:36 UTC)


TAF: ontbreekt

Waarnemingen en weersverwachtingen van meer dan 4000 vliegvelden (METAR en TAF).

De beschikbare stations zijn de gele en rode punten op de kaart.

Ga met uw muis naar het station om de naam te zien.

Klik dan om waarnemingen en weersverwachtingen te zien.

kaart wijzigen: klik op de groene knoppen met een zwart kruis om in te zoomen, op de groene knop met een streepje om uit te zoomen of op de groene pijlen voor aangrenzende kaarten.


METAR-TAF: